createdAt,value
2018-11-11T00:00:14.647Z,16.77
2018-11-11T00:02:42.738Z,17.87
2018-11-11T00:05:11.724Z,17.77
2018-11-11T00:07:40.193Z,18.63
2018-11-11T00:10:08.295Z,19.40
2018-11-11T00:12:36.655Z,17.83
2018-11-11T00:15:05.566Z,18.67
2018-11-11T00:17:33.661Z,18.30
2018-11-11T00:20:01.750Z,18.13
2018-11-11T00:22:29.846Z,16.63
2018-11-11T00:24:57.937Z,17.17
2018-11-11T00:27:26.030Z,16.27
2018-11-11T00:29:54.110Z,17.23
2018-11-11T00:32:22.203Z,17.47
2018-11-11T00:34:50.277Z,18.03
2018-11-11T00:37:18.365Z,14.13
2018-11-11T00:39:46.501Z,20.07
2018-11-11T00:42:14.524Z,20.63
2018-11-11T00:44:42.711Z,19.63
2018-11-11T00:47:10.794Z,20.53
2018-11-11T00:49:38.864Z,19.17
2018-11-11T00:52:07.345Z,18.43
2018-11-11T00:54:35.414Z,20.50
2018-11-11T00:57:03.518Z,22.10
2018-11-11T00:59:31.603Z,22.37
2018-11-11T01:01:59.681Z,18.90
2018-11-11T01:04:27.778Z,19.63
2018-11-11T01:06:55.860Z,18.87
2018-11-11T01:09:23.930Z,21.03
2018-11-11T01:11:52.136Z,23.63
2018-11-11T01:14:20.243Z,22.93
2018-11-11T01:16:48.318Z,23.47
2018-11-11T01:19:16.398Z,21.50
2018-11-11T01:21:44.613Z,23.33
2018-11-11T01:24:12.693Z,24.17
2018-11-11T01:26:40.769Z,25.37
2018-11-11T01:29:08.862Z,24.93
2018-11-11T01:31:36.919Z,22.07
2018-11-11T01:34:04.998Z,24.57
2018-11-11T01:36:33.066Z,25.10
2018-11-11T01:39:01.145Z,23.83
2018-11-11T01:41:29.238Z,27.00
2018-11-11T01:43:57.327Z,19.83
2018-11-11T01:46:25.393Z,22.60
2018-11-11T01:48:53.478Z,24.40
2018-11-11T01:51:21.552Z,20.73
2018-11-11T01:53:49.633Z,18.23
2018-11-11T01:56:17.700Z,19.13
2018-11-11T01:58:45.780Z,18.00
2018-11-11T02:01:13.852Z,16.50
2018-11-11T02:03:41.925Z,21.97
2018-11-11T02:06:09.998Z,23.33
2018-11-11T02:08:38.076Z,23.97
2018-11-11T02:11:06.147Z,26.20
2018-11-11T02:13:34.226Z,25.40
2018-11-11T02:16:02.298Z,26.50
2018-11-11T02:18:30.380Z,24.13
2018-11-11T02:20:58.493Z,24.50
2018-11-11T02:23:26.535Z,23.07
2018-11-11T02:25:54.602Z,23.27
2018-11-11T02:28:22.688Z,25.70
2018-11-11T02:30:50.769Z,24.73
2018-11-11T02:33:18.839Z,25.47
2018-11-11T02:35:46.915Z,22.93
2018-11-11T02:38:14.991Z,25.20
2018-11-11T02:40:43.071Z,26.73
2018-11-11T02:43:11.141Z,27.47
2018-11-11T02:45:39.225Z,27.47
2018-11-11T02:48:07.293Z,27.63
2018-11-11T02:50:35.373Z,27.33
2018-11-11T02:53:03.445Z,27.07
2018-11-11T02:55:31.518Z,27.47
2018-11-11T02:57:59.586Z,26.73
2018-11-11T03:00:27.675Z,27.13
2018-11-11T03:02:55.738Z,26.70
2018-11-11T03:05:23.827Z,28.43
2018-11-11T03:07:51.890Z,26.20
2018-11-11T03:10:19.985Z,24.47
2018-11-11T03:12:48.998Z,20.47
2018-11-11T03:15:17.598Z,25.10
2018-11-11T03:17:45.768Z,25.13
2018-11-11T03:20:14.561Z,27.03
2018-11-11T03:22:42.649Z,22.87
2018-11-11T03:25:11.941Z,24.77
2018-11-11T03:27:40.511Z,26.03
2018-11-11T03:30:10.218Z,28.83
2018-11-11T03:32:38.612Z,28.40
2018-11-11T03:35:08.210Z,34.67
2018-11-11T03:37:36.306Z,27.23
2018-11-11T03:40:06.714Z,29.33
2018-11-11T03:42:34.808Z,28.53
2018-11-11T03:45:02.895Z,31.17
2018-11-11T03:47:30.988Z,30.63
2018-11-11T03:49:59.069Z,31.07
2018-11-11T03:52:27.168Z,29.50
2018-11-11T03:54:55.261Z,28.43
2018-11-11T03:57:23.350Z,27.50
2018-11-11T03:59:51.448Z,30.40
2018-11-11T04:02:19.639Z,29.57
2018-11-11T04:04:47.721Z,29.73
2018-11-11T04:07:15.820Z,32.43
2018-11-11T04:09:43.917Z,29.63
2018-11-11T04:12:12.023Z,31.30
2018-11-11T04:14:40.106Z,29.87
2018-11-11T04:17:08.212Z,29.10
2018-11-11T04:19:36.299Z,30.13
2018-11-11T04:22:10.515Z,31.83
2018-11-11T04:24:38.603Z,31.73
2018-11-11T04:27:06.711Z,32.60
2018-11-11T04:29:34.814Z,33.77
2018-11-11T04:32:02.907Z,31.57
2018-11-11T04:34:30.983Z,32.00
2018-11-11T04:36:59.071Z,34.43
2018-11-11T04:39:27.150Z,34.40
2018-11-11T04:41:55.259Z,33.07
2018-11-11T04:44:23.339Z,31.13
2018-11-11T04:46:51.426Z,33.67
2018-11-11T04:49:19.512Z,32.37
2018-11-11T04:51:47.589Z,34.13
2018-11-11T04:54:15.682Z,29.13
2018-11-11T04:56:43.762Z,34.37
2018-11-11T04:59:11.859Z,33.90
2018-11-11T05:01:40.023Z,28.87
2018-11-11T05:04:08.256Z,29.87
2018-11-11T05:06:36.337Z,31.97
2018-11-11T05:09:07.165Z,31.97
2018-11-11T05:11:35.247Z,34.07
2018-11-11T05:14:03.378Z,33.17
2018-11-11T05:16:31.455Z,28.90
2018-11-11T05:18:59.581Z,29.60
2018-11-11T05:21:27.658Z,30.13
2018-11-11T05:23:55.745Z,23.83
2018-11-11T05:26:23.869Z,30.50
2018-11-11T05:28:51.962Z,31.07
2018-11-11T05:31:20.049Z,31.27
2018-11-11T05:33:48.154Z,31.50
2018-11-11T05:36:16.239Z,29.30
2018-11-11T05:38:44.343Z,31.30
2018-11-11T05:41:12.469Z,28.67
2018-11-11T05:43:40.574Z,30.27
2018-11-11T05:46:08.663Z,27.53
2018-11-11T05:48:36.786Z,29.23
2018-11-11T05:51:05.002Z,27.47
2018-11-11T05:53:33.097Z,29.20
2018-11-11T05:56:01.194Z,32.00
2018-11-11T05:58:29.294Z,30.50
2018-11-11T06:00:57.410Z,28.67
2018-11-11T06:03:25.537Z,28.93
2018-11-11T06:05:53.625Z,31.00
2018-11-11T06:08:21.722Z,31.20
2018-11-11T06:10:49.817Z,32.00
2018-11-11T06:13:17.920Z,28.70
2018-11-11T06:15:46.005Z,29.73
2018-11-11T06:18:14.116Z,27.63
2018-11-11T06:20:42.199Z,29.90
2018-11-11T06:23:10.287Z,30.67
2018-11-11T06:25:38.399Z,32.67
2018-11-11T06:28:06.490Z,30.37
2018-11-11T06:30:34.582Z,31.67
2018-11-11T06:33:02.664Z,32.37
2018-11-11T06:35:30.755Z,34.23
2018-11-11T06:37:58.832Z,33.47
2018-11-11T06:40:26.921Z,34.17
2018-11-11T06:42:54.998Z,33.43
2018-11-11T06:45:23.081Z,32.30
2018-11-11T06:47:51.200Z,28.33
2018-11-11T06:50:19.236Z,27.00
2018-11-11T06:52:47.317Z,26.83
2018-11-11T06:55:15.402Z,26.90
2018-11-11T06:57:43.485Z,27.87
2018-11-11T07:00:14.325Z,27.90
2018-11-11T07:02:53.834Z,29.13
2018-11-11T07:05:21.928Z,31.23
2018-11-11T07:07:50.197Z,32.87
2018-11-11T07:10:18.294Z,29.87
2018-11-11T07:12:46.372Z,28.47
2018-11-11T07:15:14.469Z,27.27
2018-11-11T07:17:42.546Z,25.97
2018-11-11T07:20:10.621Z,27.53
2018-11-11T07:22:38.706Z,28.20
2018-11-11T07:25:07.008Z,30.63
2018-11-11T07:27:35.105Z,26.63
2018-11-11T07:30:03.193Z,27.93
2018-11-11T07:32:31.281Z,27.77
2018-11-11T07:34:59.354Z,28.80
2018-11-11T07:37:27.537Z,27.67
2018-11-11T07:39:55.625Z,27.50
2018-11-11T07:42:23.764Z,25.67
2018-11-11T07:44:51.899Z,25.43
2018-11-11T07:47:19.986Z,28.07
2018-11-11T07:49:48.058Z,24.13
2018-11-11T07:52:16.147Z,24.60
2018-11-11T07:54:44.282Z,22.77
2018-11-11T07:57:12.310Z,24.37
2018-11-11T07:59:40.488Z,27.27
2018-11-11T08:02:09.085Z,22.50
2018-11-11T08:04:37.294Z,30.27
2018-11-11T08:07:05.895Z,31.23
2018-11-11T08:09:33.976Z,30.37
2018-11-11T08:12:03.476Z,30.53
2018-11-11T08:14:31.552Z,33.23
2018-11-11T08:16:59.678Z,36.17
2018-11-11T08:19:27.875Z,34.53
2018-11-11T08:21:55.972Z,33.70
2018-11-11T08:24:24.071Z,33.30
2018-11-11T08:26:52.610Z,33.20
2018-11-11T08:29:20.766Z,32.07
2018-11-11T08:31:48.916Z,28.53
2018-11-11T08:34:17.251Z,31.33
2018-11-11T08:36:45.720Z,31.37
2018-11-11T08:39:14.829Z,29.80
2018-11-11T08:41:44.020Z,29.97
2018-11-11T08:44:12.506Z,27.57
2018-11-11T08:46:41.898Z,27.10
2018-11-11T08:49:11.114Z,28.30
2018-11-11T08:51:39.212Z,27.63
2018-11-11T08:54:07.459Z,30.53
2018-11-11T08:56:35.577Z,29.53
2018-11-11T08:59:03.668Z,28.47
2018-11-11T09:01:31.824Z,24.47
2018-11-11T09:04:00.056Z,26.30
2018-11-11T09:06:28.136Z,29.13
2018-11-11T09:08:56.226Z,29.13
2018-11-11T09:11:24.332Z,28.97
2018-11-11T09:13:52.389Z,28.73
2018-11-11T09:16:20.569Z,26.67
2018-11-11T09:18:49.102Z,24.87
2018-11-11T09:21:17.212Z,24.27
2018-11-11T09:23:45.284Z,26.50
2018-11-11T09:26:13.347Z,26.33
2018-11-11T09:28:41.453Z,27.10
2018-11-11T09:31:09.676Z,28.93
2018-11-11T09:33:37.860Z,28.93
2018-11-11T09:36:06.408Z,27.17
2018-11-11T09:38:34.504Z,25.23
2018-11-11T09:41:02.639Z,23.73
2018-11-11T09:43:30.735Z,20.27
2018-11-11T09:45:58.822Z,21.37
2018-11-11T09:48:26.913Z,17.87
2018-11-11T09:50:55.014Z,19.73
2018-11-11T09:53:23.103Z,18.50
2018-11-11T09:55:51.193Z,18.57
2018-11-11T09:58:19.277Z,16.53
2018-11-11T10:00:47.370Z,16.70
2018-11-11T10:03:19.827Z,17.70
2018-11-11T10:05:53.384Z,20.77
2018-11-11T10:08:26.215Z,18.90
2018-11-11T10:11:01.056Z,15.50
2018-11-11T10:13:33.111Z,11.87
2018-11-11T10:16:25.482Z,14.13
2018-11-11T10:18:59.770Z,9.07
2018-11-11T10:21:32.556Z,8.93
2018-11-11T10:24:04.612Z,7.33
2018-11-11T10:26:43.347Z,7.63
2018-11-11T10:29:16.775Z,7.93
2018-11-11T10:31:48.914Z,5.93
2018-11-11T10:34:20.568Z,7.03
2018-11-11T10:37:02.772Z,5.10
2018-11-11T10:39:37.493Z,2.63
2018-11-11T10:42:09.669Z,2.40
2018-11-11T10:44:42.136Z,1.90
2018-11-11T10:47:19.824Z,1.80
2018-11-11T10:49:53.125Z,9.57
2018-11-11T10:52:21.524Z,6.73
2018-11-11T10:54:49.596Z,8.97
2018-11-11T10:57:17.868Z,2.53
2018-11-11T10:59:45.942Z,7.73
2018-11-11T11:02:20.169Z,5.67
2018-11-11T11:04:53.705Z,6.77
2018-11-11T11:07:21.813Z,6.77
2018-11-11T11:09:50.201Z,2.20
2018-11-11T11:12:18.291Z,2.30
2018-11-11T11:14:46.352Z,1.70
2018-11-11T11:17:14.437Z,2.93
2018-11-11T11:19:42.501Z,2.40
2018-11-11T11:22:10.578Z,1.67
2018-11-11T11:24:38.635Z,1.67
2018-11-11T11:27:06.785Z,4.30
2018-11-11T11:29:34.777Z,3.87
2018-11-11T11:32:02.944Z,2.43
2018-11-11T11:34:30.926Z,2.10
2018-11-11T11:36:59.012Z,1.77
2018-11-11T11:39:27.073Z,3.13
2018-11-11T11:41:55.141Z,6.40
2018-11-11T11:44:23.221Z,5.17
2018-11-11T11:46:51.294Z,6.87
2018-11-11T11:49:19.424Z,3.20
2018-11-11T11:51:47.522Z,14.30
2018-11-11T11:54:15.580Z,7.00
2018-11-11T11:56:43.645Z,2.80
2018-11-11T11:59:11.722Z,1.63
2018-11-11T12:01:39.788Z,1.80
2018-11-11T12:04:07.867Z,1.57
2018-11-11T12:06:35.931Z,1.83
2018-11-11T12:09:06.333Z,1.90
2018-11-11T12:11:34.373Z,2.00
2018-11-11T12:14:02.451Z,1.93
2018-11-11T12:16:30.600Z,1.97
2018-11-11T12:18:58.608Z,2.00
2018-11-11T12:21:26.676Z,2.70
2018-11-11T12:23:54.787Z,3.33
2018-11-11T12:26:23.117Z,4.93
2018-11-11T12:28:51.205Z,2.70
2018-11-11T12:31:19.318Z,1.63
2018-11-11T12:33:47.403Z,5.33
2018-11-11T12:36:15.467Z,2.30
2018-11-11T12:38:43.544Z,1.90
2018-11-11T12:41:11.607Z,1.60
2018-11-11T12:43:39.683Z,1.60
2018-11-11T12:46:07.747Z,1.50
2018-11-11T12:48:35.864Z,1.87
2018-11-11T12:51:03.959Z,1.73
2018-11-11T12:53:32.028Z,1.90
2018-11-11T12:56:00.149Z,1.63
2018-11-11T12:58:28.221Z,1.20
2018-11-11T13:00:56.310Z,1.90
2018-11-11T13:05:58.161Z,1.40
2018-11-11T13:08:26.225Z,1.60
2018-11-11T13:10:54.309Z,1.07
2018-11-11T13:13:22.381Z,1.70
2018-11-11T13:15:50.452Z,1.63
2018-11-11T13:18:18.516Z,2.33
2018-11-11T13:20:46.592Z,2.07
2018-11-11T13:23:14.657Z,1.77
2018-11-11T13:25:42.732Z,2.53
2018-11-11T13:28:10.810Z,2.63
2018-11-11T13:30:38.888Z,1.10
2018-11-11T13:33:06.958Z,1.77
2018-11-11T13:35:35.031Z,1.33
2018-11-11T13:38:03.304Z,1.57
2018-11-11T13:40:31.177Z,1.80
2018-11-11T13:42:59.242Z,2.60
2018-11-11T13:45:27.328Z,1.40
2018-11-11T13:47:55.392Z,1.30
2018-11-11T13:50:24.654Z,1.47
2018-11-11T13:52:52.739Z,1.40
2018-11-11T13:55:21.555Z,1.90
2018-11-11T13:57:49.986Z,3.13
2018-11-11T14:00:21.144Z,1.30
2018-11-11T14:02:49.245Z,1.70
2018-11-11T14:05:17.330Z,1.43
2018-11-11T14:07:45.553Z,2.30
2018-11-11T14:10:14.255Z,1.50
2018-11-11T14:12:42.312Z,1.30
2018-11-11T14:15:14.134Z,0.90
2018-11-11T14:17:42.961Z,0.90
2018-11-11T14:20:12.480Z,1.50
2018-11-11T14:22:41.867Z,1.43
2018-11-11T14:25:14.066Z,1.40
2018-11-11T14:27:42.217Z,1.07
2018-11-11T14:30:12.765Z,1.53
2018-11-11T14:32:40.893Z,1.30
2018-11-11T14:35:09.813Z,1.43
2018-11-11T14:37:37.956Z,1.60
2018-11-11T14:40:10.358Z,1.50
2018-11-11T14:42:38.652Z,1.93
2018-11-11T14:45:07.877Z,2.07
2018-11-11T14:47:35.964Z,2.10
2018-11-11T14:50:04.183Z,1.90
2018-11-11T14:52:32.310Z,2.50
2018-11-11T14:55:00.332Z,3.03
2018-11-11T14:57:28.511Z,5.23
2018-11-11T14:59:56.580Z,3.90
2018-11-11T15:02:24.714Z,1.77
2018-11-11T15:04:52.781Z,2.40
2018-11-11T15:07:20.965Z,1.50
2018-11-11T15:09:49.033Z,3.90
2018-11-11T15:12:17.208Z,2.57
2018-11-11T15:14:45.276Z,6.03
2018-11-11T15:17:13.462Z,4.60
2018-11-11T15:19:41.625Z,2.07
2018-11-11T15:22:09.614Z,4.33
2018-11-11T15:24:37.685Z,3.43
2018-11-11T15:27:06.165Z,4.77
2018-11-11T15:29:34.339Z,4.37
2018-11-11T15:32:02.397Z,2.60
2018-11-11T15:34:30.460Z,2.00
2018-11-11T15:36:58.652Z,2.87
2018-11-11T15:39:26.723Z,2.60
2018-11-11T15:41:54.812Z,4.53
2018-11-11T15:44:22.883Z,3.00
2018-11-11T15:46:51.032Z,2.83
2018-11-11T15:49:19.117Z,6.37
2018-11-11T15:51:47.284Z,5.23
2018-11-11T15:54:15.465Z,3.97
2018-11-11T15:56:43.536Z,1.93
2018-11-11T15:59:11.639Z,2.70
2018-11-11T16:01:39.673Z,2.77
2018-11-11T16:04:08.013Z,3.67
2018-11-11T16:06:36.084Z,6.90
2018-11-11T16:09:05.075Z,9.63
2018-11-11T16:11:33.147Z,10.07
2018-11-11T16:14:01.292Z,7.17
2018-11-11T16:16:29.326Z,7.07
2018-11-11T16:18:57.405Z,4.83
2018-11-11T16:21:25.471Z,2.40
2018-11-11T16:23:53.548Z,2.47
2018-11-11T16:26:21.621Z,2.47
2018-11-11T16:28:49.710Z,2.60
2018-11-11T16:31:17.794Z,2.20
2018-11-11T16:33:45.906Z,2.20
2018-11-11T16:36:13.912Z,2.30
2018-11-11T16:38:42.093Z,2.50
2018-11-11T16:41:10.312Z,2.50
2018-11-11T16:43:38.236Z,2.63
2018-11-11T16:46:06.310Z,11.43
2018-11-11T16:48:34.390Z,6.70
2018-11-11T16:51:02.516Z,4.27
2018-11-11T16:53:30.633Z,3.57
2018-11-11T16:55:58.695Z,3.60
2018-11-11T16:58:26.773Z,6.63
2018-11-11T17:00:54.845Z,10.90
2018-11-11T17:03:22.924Z,9.50
2018-11-11T17:05:50.994Z,8.83
2018-11-11T17:08:19.080Z,4.20
2018-11-11T17:10:47.150Z,6.03
2018-11-11T17:13:15.229Z,9.43
2018-11-11T17:15:43.309Z,7.67
2018-11-11T17:18:11.464Z,6.70
2018-11-11T17:20:39.664Z,8.43
2018-11-11T17:23:08.369Z,6.47
2018-11-11T17:25:36.456Z,9.53
2018-11-11T17:28:04.655Z,8.47
2018-11-11T17:30:33.262Z,8.10
2018-11-11T17:33:01.981Z,4.87
2018-11-11T17:35:29.988Z,5.80
2018-11-11T17:37:58.076Z,7.30
2018-11-11T17:40:27.528Z,5.23
2018-11-11T17:42:56.138Z,11.10
2018-11-11T17:45:24.246Z,6.60
2018-11-11T17:47:53.002Z,4.90
2018-11-11T17:50:24.567Z,6.40
2018-11-11T17:52:52.716Z,6.97
2018-11-11T17:55:22.177Z,11.47
2018-11-11T17:57:50.248Z,5.83
2018-11-11T18:00:19.621Z,2.53
2018-11-11T18:02:47.793Z,3.60
2018-11-11T18:05:17.305Z,20.57
2018-11-11T18:07:45.400Z,6.10
2018-11-11T18:10:14.891Z,4.50
2018-11-11T18:12:43.124Z,2.80
2018-11-11T18:15:12.860Z,3.23
2018-11-11T18:17:41.451Z,6.00
2018-11-11T18:20:12.236Z,9.80
2018-11-11T18:22:40.302Z,6.03
2018-11-11T18:25:08.517Z,5.60
2018-11-11T18:27:36.890Z,5.47
2018-11-11T18:30:09.909Z,5.33
2018-11-11T18:32:38.190Z,7.50
2018-11-11T18:35:08.099Z,7.13
2018-11-11T18:37:36.205Z,6.57
2018-11-11T18:40:05.228Z,4.83
2018-11-11T18:42:33.268Z,8.03
2018-11-11T18:45:01.362Z,9.17
2018-11-11T18:47:29.577Z,10.40
2018-11-11T18:49:57.654Z,12.77
2018-11-11T18:52:25.807Z,8.60
2018-11-11T18:54:53.915Z,10.73
2018-11-11T18:57:22.187Z,9.17
2018-11-11T18:59:50.260Z,8.60
2018-11-11T19:02:18.856Z,7.60
2018-11-11T19:04:47.889Z,9.43
2018-11-11T19:07:15.990Z,7.60
2018-11-11T19:09:44.142Z,12.17
2018-11-11T19:12:12.197Z,5.87
2018-11-11T19:14:40.291Z,8.97
2018-11-11T19:17:08.395Z,9.40
2018-11-11T19:19:36.492Z,10.30
2018-11-11T19:22:04.667Z,10.53
2018-11-11T19:24:32.851Z,10.20
2018-11-11T19:27:00.865Z,10.50
2018-11-11T19:29:28.960Z,7.67
2018-11-11T19:31:57.043Z,9.30
2018-11-11T19:34:25.169Z,7.63
2018-11-11T19:36:53.256Z,7.50
2018-11-11T19:39:21.343Z,6.87
2018-11-11T19:41:49.536Z,7.50
2018-11-11T19:44:17.596Z,8.47
2018-11-11T19:46:45.671Z,6.10
2018-11-11T19:49:13.917Z,6.93
2018-11-11T19:51:42.175Z,8.70
2018-11-11T19:54:10.158Z,9.03
2018-11-11T19:56:38.333Z,6.37
2018-11-11T19:59:06.437Z,11.03
2018-11-11T20:01:34.518Z,8.37
2018-11-11T20:04:02.616Z,10.77
2018-11-11T20:06:30.705Z,8.33
2018-11-11T20:08:58.910Z,8.87
2018-11-11T20:11:27.153Z,13.27
2018-11-11T20:13:55.251Z,9.10
2018-11-11T20:16:23.345Z,14.50
2018-11-11T20:18:51.446Z,11.70
2018-11-11T20:21:19.549Z,8.27
2018-11-11T20:23:47.692Z,8.37
2018-11-11T20:26:15.718Z,9.20
2018-11-11T20:28:43.832Z,7.87
2018-11-11T20:31:12.011Z,7.57
2018-11-11T20:33:40.130Z,7.53
2018-11-11T20:36:08.227Z,6.70
2018-11-11T20:38:36.333Z,6.37
2018-11-11T20:41:04.522Z,7.93
2018-11-11T20:43:32.625Z,7.50
2018-11-11T20:46:00.740Z,7.40
2018-11-11T20:48:28.836Z,7.80
2018-11-11T20:50:56.940Z,8.07
2018-11-11T20:53:25.138Z,6.80
2018-11-11T20:55:53.299Z,8.03
2018-11-11T20:58:21.341Z,7.57
2018-11-11T21:00:49.438Z,6.73
2018-11-11T21:03:17.525Z,7.67
2018-11-11T21:05:45.696Z,7.30
2018-11-11T21:08:13.867Z,7.57
2018-11-11T21:10:42.008Z,7.20
2018-11-11T21:13:10.090Z,6.43
2018-11-11T21:15:38.402Z,7.40
2018-11-11T21:18:06.509Z,7.00
2018-11-11T21:20:34.620Z,7.13
2018-11-11T21:23:02.716Z,7.60
2018-11-11T21:25:30.860Z,8.03
2018-11-11T21:27:58.928Z,7.03
2018-11-11T21:30:29.233Z,9.93
2018-11-11T21:32:57.495Z,13.70
2018-11-11T21:35:25.607Z,14.60
2018-11-11T21:37:53.745Z,8.77
2018-11-11T21:40:23.151Z,7.50
2018-11-11T21:42:51.832Z,19.93
2018-11-11T21:45:21.143Z,10.83
2018-11-11T21:47:49.416Z,7.30
2018-11-11T21:50:20.877Z,13.13
2018-11-11T21:53:22.191Z,11.37
2018-11-11T21:55:50.500Z,9.87
2018-11-11T21:58:18.603Z,12.47
2018-11-11T22:00:46.718Z,8.20
2018-11-11T22:03:14.885Z,9.47
2018-11-11T22:05:42.980Z,7.47
2018-11-11T22:08:11.082Z,7.27
2018-11-11T22:10:39.180Z,16.30
2018-11-11T22:13:07.279Z,5.77
2018-11-11T22:15:35.383Z,8.27
2018-11-11T22:18:03.556Z,8.53
2018-11-11T22:20:31.576Z,6.07
2018-11-11T22:22:59.677Z,5.80
2018-11-11T22:25:27.764Z,4.50
2018-11-11T22:27:55.905Z,10.80
2018-11-11T22:30:23.965Z,5.13
2018-11-11T22:32:52.065Z,5.00
2018-11-11T22:35:20.158Z,5.10
2018-11-11T22:37:48.258Z,5.80
2018-11-11T22:40:16.348Z,5.60
2018-11-11T22:42:44.452Z,6.20
2018-11-11T22:45:13.727Z,6.10
2018-11-11T22:47:41.848Z,4.83
2018-11-11T22:50:11.676Z,3.80
2018-11-11T22:52:40.215Z,4.47
2018-11-11T22:55:09.345Z,6.80
2018-11-11T22:57:37.448Z,5.90
2018-11-11T23:00:16.270Z,4.80
2018-11-11T23:02:44.403Z,4.47
2018-11-11T23:05:12.490Z,3.90
2018-11-11T23:07:40.607Z,11.80
2018-11-11T23:10:09.362Z,7.93
2018-11-11T23:12:37.638Z,6.87
2018-11-11T23:15:06.438Z,5.80
2018-11-11T23:17:34.713Z,5.47
2018-11-11T23:20:02.817Z,5.33
2018-11-11T23:22:30.923Z,4.80
2018-11-11T23:24:59.342Z,4.80
2018-11-11T23:27:27.435Z,5.17
2018-11-11T23:29:55.526Z,4.07
2018-11-11T23:32:23.604Z,4.40
2018-11-11T23:34:51.706Z,4.00
2018-11-11T23:37:19.777Z,2.87
2018-11-11T23:39:47.868Z,4.27
2018-11-11T23:42:15.942Z,5.27
2018-11-11T23:44:44.043Z,5.00
2018-11-11T23:47:12.140Z,5.90
2018-11-11T23:49:40.221Z,4.67
2018-11-11T23:52:08.307Z,4.20
2018-11-11T23:54:36.620Z,4.37
2018-11-11T23:57:05.097Z,4.53
2018-11-11T23:59:33.197Z,3.83
